Time;durP1;ratioP1;P1;durP2;ratioP2;P2;SDS_P1;SDS_P2;PMS_P1;PMS_P2;Temp;Humidity;BMP_temperature;BMP_pressure;BME280_temperature;BME280_humidity;BME280_pressure;Samples;Min_cycle;Max_cycle;Signal;HPM_P1;HPM_P2
2022/02/15 00:00:38;;;;;;;10.57;5.78;;;;;;;-1.49;59.82;100089.38;5064301;28;20813;-80
2022/02/15 00:03:06;;;;;;;8.57;5.53;;;;;;;-1.70;59.52;100053.59;5048659;28;20036;-78
2022/02/15 00:05:32;;;;;;;11.73;5.47;;;;;;;-1.56;59.59;100088.25;5046271;28;20040;-81
2022/02/15 00:07:58;;;;;;;13.18;5.75;;;;;;;-1.75;59.62;100070.38;5064142;28;20037;-80
2022/02/15 00:10:23;;;;;;;11.52;5.53;;;;;;;-1.74;59.72;100072.97;5040801;28;20043;-78
2022/02/15 00:12:49;;;;;;;11.27;5.55;;;;;;;-1.66;59.78;100096.31;5046398;28;21075;-79
2022/02/15 00:15:15;;;;;;;8.48;5.00;;;;;;;-1.70;59.94;100074.00;5060126;28;20041;-78
2022/02/15 00:17:41;;;;;;;10.25;5.50;;;;;;;-1.63;59.95;100086.22;5064625;28;20036;-80
2022/02/15 00:20:10;;;;;;;12.05;6.10;;;;;;;-1.78;59.61;100063.44;5050181;28;20162;-78
2022/02/15 00:22:36;;;;;;;11.98;5.80;;;;;;;-1.64;59.64;100083.59;5063481;28;20087;-80
2022/02/15 00:25:02;;;;;;;11.23;5.88;;;;;;;-1.83;59.44;100053.00;5066806;28;20149;-80
2022/02/15 00:27:28;;;;;;;12.13;5.32;;;;;;;-1.77;59.87;100071.97;5069355;28;20057;-80
2022/02/15 00:29:54;;;;;;;12.50;6.03;;;;;;;-1.83;59.89;100067.47;5068646;28;20033;-80
2022/02/15 00:32:21;;;;;;;9.15;5.53;;;;;;;-1.74;59.99;100090.84;5068036;28;20044;-80
2022/02/15 00:34:47;;;;;;;9.35;5.13;;;;;;;-1.85;59.76;100075.03;5066522;28;20044;-79
2022/02/15 00:37:13;;;;;;;11.80;6.30;;;;;;;-1.67;59.84;100097.13;5068071;28;20072;-80
2022/02/15 00:39:39;;;;;;;10.68;5.68;;;;;;;-1.86;60.01;100068.19;5066401;28;20045;-77
2022/02/15 00:42:05;;;;;;;10.32;5.75;;;;;;;-1.82;60.12;100059.00;5062996;28;20039;-77
2022/02/15 00:44:31;;;;;;;10.43;5.72;;;;;;;-1.79;59.95;100078.69;5078729;28;20414;-78
2022/02/15 00:46:58;;;;;;;11.90;5.68;;;;;;;-1.73;60.24;100073.84;5080498;28;20114;-79
2022/02/15 00:49:25;;;;;;;13.75;5.22;;;;;;;-1.58;59.92;100101.75;5058458;28;20456;-79
2022/02/15 00:51:50;;;;;;;12.15;6.30;;;;;;;-1.66;59.91;100093.75;5064792;28;20033;-79
2022/02/15 00:54:17;;;;;;;12.35;6.10;;;;;;;-1.66;60.02;100096.31;5047050;28;20124;-80
2022/02/15 00:56:43;;;;;;;9.68;5.25;;;;;;;-1.73;60.04;100091.72;5033550;28;20036;-79
2022/02/15 00:59:09;;;;;;;11.52;5.50;;;;;;;-1.66;59.89;100106.50;5060419;28;20043;-78
2022/02/15 01:01:38;;;;;;;10.57;6.03;;;;;;;-1.63;60.16;100123.63;5067931;28;20450;-77
2022/02/15 01:04:05;;;;;;;10.07;5.80;;;;;;;-1.63;60.31;100113.44;5045294;28;20040;-80
2022/02/15 01:06:33;;;;;;;11.95;5.88;;;;;;;-1.65;60.11;100117.59;5062184;28;20043;-78
2022/02/15 01:08:59;;;;;;;10.65;5.80;;;;;;;-1.74;60.38;100120.59;5068170;28;20055;-78
2022/02/15 01:11:25;;;;;;;12.13;5.85;;;;;;;-1.82;60.10;100105.78;5050745;28;20039;-79
2022/02/15 01:13:50;;;;;;;12.63;6.45;;;;;;;-1.76;60.14;100117.09;5049977;28;20076;-77
2022/02/15 01:16:16;;;;;;;12.52;6.07;;;;;;;-1.73;60.61;100130.00;5055117;28;20067;-79
2022/02/15 01:18:42;;;;;;;13.48;6.57;;;;;;;-1.87;60.24;100106.41;5046204;28;20067;-81
2022/02/15 01:21:09;;;;;;;10.95;6.45;;;;;;;-1.76;60.37;100134.97;5060528;28;20048;-79
2022/02/15 01:23:34;;;;;;;12.73;6.20;;;;;;;-1.86;60.59;100129.41;5034587;28;20049;-78
2022/02/15 01:26:00;;;;;;;10.52;6.10;;;;;;;-1.82;60.48;100133.88;5062704;28;20102;-77
2022/02/15 01:28:26;;;;;;;12.18;6.15;;;;;;;-1.88;60.35;100122.50;5067888;28;20400;-78
2022/02/15 01:30:55;;;;;;;14.40;6.43;;;;;;;-1.95;60.69;100112.81;5050170;28;20064;-78
2022/02/15 01:33:22;;;;;;;11.57;6.38;;;;;;;-1.85;60.69;100141.38;5042359;28;20040;-79
2022/02/15 01:35:48;;;;;;;10.18;6.18;;;;;;;-1.89;60.96;100129.31;5062824;28;20575;-80
2022/02/15 01:38:13;;;;;;;12.57;5.78;;;;;;;-1.84;60.76;100137.16;5068430;28;20044;-80
2022/02/15 01:40:40;;;;;;;11.95;6.03;;;;;;;-2.13;60.59;100109.50;5065862;28;20090;-79
2022/02/15 01:43:07;;;;;;;13.05;6.32;;;;;;;-1.92;60.64;100136.81;5051596;28;20584;-77
2022/02/15 01:45:33;;;;;;;11.02;6.43;;;;;;;-1.93;60.82;100134.16;5049650;28;20040;-78
2022/02/15 01:48:00;;;;;;;11.68;6.65;;;;;;;-1.98;60.86;100133.97;5067793;28;20047;-80
2022/02/15 01:50:26;;;;;;;12.90;7.18;;;;;;;-1.93;60.75;100142.72;5068146;28;20590;-81
2022/02/15 01:52:51;;;;;;;13.38;6.70;;;;;;;-2.01;61.03;100133.81;5035441;28;20029;-79
2022/02/15 01:55:18;;;;;;;12.90;6.70;;;;;;;-2.00;60.82;100145.75;5066206;28;20036;-79
2022/02/15 01:57:44;;;;;;;12.95;7.47;;;;;;;-2.04;60.92;100149.84;5059768;28;20523;-78
2022/02/15 02:00:31;;;;;;;14.07;6.68;;;;;;;-2.19;60.95;100124.50;5062946;28;20126;-78
2022/02/15 02:03:06;;;;;;;11.73;6.97;;;;;;;-2.14;60.76;100142.53;5063675;28;20032;-79
2022/02/15 02:05:48;;;;;;;12.45;6.30;;;;;;;-2.18;61.12;100146.63;5067372;28;20040;-80
2022/02/15 02:08:23;;;;;;;12.13;6.57;;;;;;;-2.08;61.26;100149.59;5049906;28;20047;-78
2022/02/15 02:10:49;;;;;;;12.05;6.68;;;;;;;-2.10;61.12;100153.78;5069801;28;20040;-79
2022/02/15 02:13:36;;;;;;;12.50;6.20;;;;;;;-2.21;61.14;100153.28;5073860;28;20143;-79
2022/02/15 02:16:06;;;;;;;12.32;6.63;;;;;;;-2.28;61.04;100141.88;5047355;28;20110;-81
2022/02/15 02:18:44;;;;;;;12.15;6.40;;;;;;;-2.31;61.06;100145.16;5049121;28;20066;-81
2022/02/15 02:21:12;;;;;;;12.90;6.47;;;;;;;-2.19;61.17;100165.28;5049948;28;20086;-82
2022/02/15 02:23:39;;;;;;;13.82;6.85;;;;;;;-2.29;61.64;100148.66;5051482;28;20040;-80
2022/02/15 02:26:14;;;;;;;13.73;7.07;;;;;;;-2.40;61.12;100138.75;5034988;28;20040;-78
2022/02/15 02:28:41;;;;;;;12.45;6.70;;;;;;;-2.32;61.62;100158.72;5050239;28;20043;-79
2022/02/15 02:31:07;;;;;;;13.63;7.03;;;;;;;-2.34;61.75;100154.34;5064353;28;20048;-80
2022/02/15 02:33:39;;;;;;;11.07;5.93;;;;;;;-2.29;61.71;100161.41;5034816;28;20195;-82
2022/02/15 02:36:05;;;;;;;13.52;7.03;;;;;;;-2.29;61.68;100170.72;5062974;28;20079;-80
2022/02/15 02:38:31;;;;;;;14.27;6.65;;;;;;;-2.44;61.87;100140.28;5061440;28;20044;-81
2022/02/15 02:41:02;;;;;;;13.07;6.97;;;;;;;-2.33;61.68;100161.19;5049921;28;20391;-81
2022/02/15 02:43:29;;;;;;;14.18;7.50;;;;;;;-2.61;61.87;100124.16;5060814;28;20052;-78
2022/02/15 02:45:57;;;;;;;15.02;7.15;;;;;;;-2.34;61.91;100169.66;5058938;28;20070;-80
2022/02/15 02:48:23;;;;;;;12.75;6.45;;;;;;;-2.45;61.95;100159.78;5052477;28;20046;-78
2022/02/15 02:50:49;;;;;;;11.40;6.70;;;;;;;-2.54;62.08;100145.72;5017025;28;20041;-80
2022/02/15 02:53:16;;;;;;;16.02;7.68;;;;;;;-2.42;62.27;100180.34;5050673;28;20052;-79
2022/02/15 02:55:43;;;;;;;14.77;7.63;;;;;;;-2.59;62.41;100153.13;5038590;28;20469;-80
2022/02/15 02:58:10;;;;;;;14.45;7.22;;;;;;;-2.51;62.33;100167.13;5042819;28;20076;-78
2022/02/15 03:00:36;;;;;;;13.55;7.55;;;;;;;-2.63;62.61;100149.53;5046231;28;20052;-79
2022/02/15 03:03:22;;;;;;;18.30;7.28;;;;;;;-2.50;62.70;100170.56;5064146;28;20815;-80
2022/02/15 03:05:51;;;;;;;12.93;6.95;;;;;;;-2.60;62.77;100154.81;5048399;28;20415;-80
2022/02/15 03:08:18;;;;;;;13.30;7.25;;;;;;;-2.62;62.99;100160.63;5059538;28;20044;-82
2022/02/15 03:10:46;;;;;;;14.85;6.90;;;;;;;-2.70;62.78;100159.34;5061492;28;20117;-80
2022/02/15 03:13:23;;;;;;;16.45;8.18;;;;;;;-2.58;62.92;100176.13;5067179;28;20052;-80
2022/02/15 03:15:49;;;;;;;15.00;7.05;;;;;;;-2.64;62.91;100180.06;5034925;28;20059;-82
2022/02/15 03:18:14;;;;;;;13.85;7.00;;;;;;;-2.63;63.11;100179.25;5052109;28;20044;-81
2022/02/15 03:20:41;;;;;;;14.80;7.07;;;;;;;-2.75;63.02;100169.31;5049160;28;20040;-81
2022/02/15 03:23:07;;;;;;;16.60;6.75;;;;;;;-2.80;62.98;100165.66;5069406;28;21032;-78
2022/02/15 03:25:35;;;;;;;16.80;7.35;;;;;;;-2.76;63.52;100160.78;5052405;28;20126;-78
2022/02/15 03:28:02;;;;;;;17.30;7.53;;;;;;;-2.61;63.36;100190.41;5039226;28;20040;-79
2022/02/15 03:30:28;;;;;;;16.33;7.60;;;;;;;-2.65;63.29;100185.94;5071399;28;20040;-81
2022/02/15 03:32:54;;;;;;;14.40;7.57;;;;;;;-2.78;63.61;100182.78;5053291;28;20044;-83
2022/02/15 03:35:20;;;;;;;14.93;7.10;;;;;;;-2.76;63.54;100175.22;5049807;28;20041;-79
2022/02/15 03:37:55;;;;;;;14.73;7.13;;;;;;;-2.87;63.58;100167.03;5050643;28;20053;-80
2022/02/15 03:40:21;;;;;;;14.20;7.20;;;;;;;-2.72;63.77;100195.81;5061976;28;20056;-81
2022/02/15 03:43:05;;;;;;;11.82;6.78;;;;;;;-3.16;63.88;100125.66;5071149;28;20198;-82
2022/02/15 03:45:32;;;;;;;16.08;7.82;;;;;;;-2.86;64.17;100171.31;5069902;28;20052;-79
2022/02/15 03:48:13;;;;;;;15.55;7.85;;;;;;;-2.78;63.78;100185.34;5047874;28;20052;-84
2022/02/15 03:50:43;;;;;;;14.80;7.15;;;;;;;-3.67;63.82;100070.47;5064967;28;20045;-83
2022/02/15 03:53:09;;;;;;;15.77;7.43;;;;;;;-2.73;63.90;100200.84;5050498;28;20052;-80
2022/02/15 03:55:36;;;;;;;14.88;7.32;;;;;;;-2.84;63.93;100179.03;5055135;28;20040;-79
2022/02/15 03:58:03;;;;;;;13.43;7.22;;;;;;;-2.81;64.40;100197.91;5061908;28;20112;-81
2022/02/15 04:00:29;;;;;;;15.75;7.93;;;;;;;-2.76;64.34;100204.09;5058937;28;20045;-77
2022/02/15 04:03:03;;;;;;;13.40;7.00;;;;;;;-3.04;64.30;100159.41;5071731;28;20094;-80
2022/02/15 04:05:30;;;;;;;11.23;6.55;;;;;;;-2.74;64.17;100199.97;5066838;28;20059;-80
2022/02/15 04:07:57;;;;;;;19.02;7.57;;;;;;;-2.79;64.60;100196.31;5070459;28;20035;-79
2022/02/15 04:10:23;;;;;;;15.30;7.43;;;;;;;-2.86;64.41;100196.81;5079513;28;20096;-80
2022/02/15 04:12:49;;;;;;;14.88;7.40;;;;;;;-2.83;64.74;100217.34;5082389;28;20045;-78
2022/02/15 04:15:19;;;;;;;13.40;7.05;;;;;;;-2.84;64.62;100205.41;5082848;28;20044;-82
2022/02/15 04:17:58;;;;;;;15.52;7.47;;;;;;;-2.77;64.21;100214.22;5073143;28;20052;-81
2022/02/15 04:20:24;;;;;;;14.18;7.47;;;;;;;-3.08;64.79;100160.03;5065888;28;20048;-77
2022/02/15 04:22:50;;;;;;;14.18;7.32;;;;;;;-3.08;64.61;100162.59;5071893;28;20123;-80
2022/02/15 04:25:16;;;;;;;17.00;7.47;;;;;;;-2.90;64.69;100188.13;5082190;28;20318;-82
2022/02/15 04:27:44;;;;;;;13.15;7.05;;;;;;;-2.96;64.80;100177.63;5069126;28;20032;-79
2022/02/15 04:30:10;;;;;;;17.23;8.05;;;;;;;-2.78;64.60;100205.72;5089175;28;20036;-80
2022/02/15 04:32:38;;;;;;;13.77;7.20;;;;;;;-2.76;64.90;100214.28;5087235;28;20150;-83
2022/02/15 04:35:05;;;;;;;14.45;7.85;;;;;;;-2.93;64.95;100189.63;5050143;28;20047;-83
2022/02/15 04:37:31;;;;;;;13.55;6.93;;;;;;;-2.99;64.96;100181.69;5071542;28;20041;-81
2022/02/15 04:39:57;;;;;;;19.92;8.15;;;;;;;-2.77;64.65;100215.13;5077414;28;20102;-81
2022/02/15 04:42:24;;;;;;;15.45;7.50;;;;;;;-2.74;64.71;100217.78;5055533;28;20040;-81
2022/02/15 04:44:55;;;;;;;15.82;8.18;;;;;;;-3.06;64.85;100165.19;5051684;28;20041;-81
2022/02/15 04:47:42;;;;;;;18.00;7.18;;;;;;;-2.84;65.12;100194.31;5060250;28;20051;-82
2022/02/15 04:50:09;;;;;;;16.88;7.88;;;;;;;-2.73;64.68;100227.19;5054424;28;20052;-81
2022/02/15 04:52:35;;;;;;;15.98;7.25;;;;;;;-2.66;64.71;100238.59;5058085;28;20094;-79
2022/02/15 04:55:04;;;;;;;13.63;7.25;;;;;;;-2.62;64.82;100249.81;5048725;28;20044;-83
2022/02/15 04:57:34;;;;;;;15.18;6.75;;;;;;;-2.80;64.98;100207.31;5073376;28;20107;-81
2022/02/15 05:00:05;;;;;;;14.32;6.95;;;;;;;-2.53;64.81;100250.28;5039280;28;20165;-80
2022/02/15 05:02:50;;;;;;;15.57;7.18;;;;;;;-2.63;64.77;100227.69;5066709;28;20044;-79
2022/02/15 05:05:16;;;;;;;13.48;6.32;;;;;;;-2.48;64.83;100246.28;5072875;28;20050;-81
2022/02/15 05:07:44;;;;;;;14.30;6.95;;;;;;;-2.63;64.43;100207.28;5068450;28;20111;-80
2022/02/15 05:10:10;;;;;;;15.38;6.70;;;;;;;-2.31;65.17;100242.06;5064484;28;20043;-82
2022/02/15 05:12:39;;;;;;;17.70;7.25;;;;;;;-2.13;64.60;100246.31;5051705;28;20048;-78
2022/02/15 05:15:09;;;;;;;13.73;6.70;;;;;;;-1.96;64.82;100249.69;5072852;28;20048;-80
2022/02/15 05:17:50;;;;;;;17.42;7.68;;;;;;;-1.64;64.30;100237.59;5055271;28;20040;-81
2022/02/15 05:20:17;;;;;;;11.80;6.63;;;;;;;-1.15;63.62;100220.25;5062530;28;20397;-82
2022/02/15 05:22:45;;;;;;;12.93;6.60;;;;;;;-0.76;63.50;100210.03;5066740;28;20044;-81
2022/02/15 05:25:12;;;;;;;14.95;6.68;;;;;;;-0.15;63.40;100249.28;5065642;28;20178;-80
2022/02/15 05:27:39;;;;;;;13.25;6.20;;;;;;;0.25;62.72;100242.34;5067601;28;20044;-79
2022/02/15 05:30:15;;;;;;;11.52;6.50;;;;;;;0.53;62.06;100236.63;5053005;28;20040;-77
2022/02/15 05:33:01;;;;;;;12.35;6.05;;;;;;;0.90;61.30;100230.34;5068123;28;20040;-79
2022/02/15 05:35:27;;;;;;;10.18;6.15;;;;;;;1.27;61.58;100222.22;5074246;28;20137;-81
2022/02/15 05:37:53;;;;;;;11.55;5.78;;;;;;;1.61;60.77;100220.84;5072939;28;20071;-79
2022/02/15 05:40:26;;;;;;;11.98;6.43;;;;;;;1.79;60.50;100192.34;5067775;28;20123;-79
2022/02/15 05:42:56;;;;;;;11.50;6.30;;;;;;;2.21;59.71;100184.28;5049524;28;20043;-80
2022/02/15 05:45:22;;;;;;;10.32;5.82;;;;;;;2.77;58.90;100221.06;5063359;28;20179;-84
2022/02/15 05:48:07;;;;;;;11.90;5.85;;;;;;;3.17;57.67;100225.66;5065577;28;20052;-82
2022/02/15 05:50:52;;;;;;;12.43;6.20;;;;;;;3.71;58.14;100226.25;5037603;28;20032;-82
2022/02/15 05:53:44;;;;;;;8.57;5.32;;;;;;;4.19;56.32;100213.69;5066704;28;20444;-80
2022/02/15 05:56:20;;;;;;;10.57;5.63;;;;;;;4.37;54.58;100179.72;5063916;28;20138;-81
2022/02/15 05:59:18;;;;;;;10.57;6.15;;;;;;;4.77;53.88;100219.25;5062362;28;20037;-80
2022/02/15 06:01:55;;;;;;;10.73;6.13;;;;;;;5.27;54.51;100204.78;5066016;28;20126;-79
2022/02/15 06:04:25;;;;;;;10.40;5.60;;;;;;;5.73;52.04;100208.22;5064253;28;20103;-79
2022/02/15 06:07:07;;;;;;;9.82;6.20;;;;;;;6.22;51.63;100232.28;5035236;28;20106;-79
2022/02/15 06:09:34;;;;;;;10.70;5.80;;;;;;;6.32;50.41;100219.50;5071005;28;20063;-79
2022/02/15 06:12:00;;;;;;;11.00;6.28;;;;;;;6.90;49.58;100221.19;5043423;28;20063;-80
2022/02/15 06:14:40;;;;;;;13.32;5.70;;;;;;;7.38;48.82;100233.84;5060337;28;20578;-79
2022/02/15 06:17:10;;;;;;;10.82;6.05;;;;;;;7.71;47.47;100224.69;5077386;28;20044;-83
2022/02/15 06:19:38;;;;;;;9.65;5.40;;;;;;;8.40;47.21;100215.72;5075594;28;20040;-79
2022/02/15 06:22:04;;;;;;;10.80;6.18;;;;;;;9.52;46.11;100227.50;5064398;28;20068;-80
2022/02/15 06:24:35;;;;;;;10.82;5.82;;;;;;;10.42;43.85;100227.59;5054590;28;20036;-80
2022/02/15 06:27:21;;;;;;;9.55;6.25;;;;;;;11.34;43.31;100215.13;5068469;28;20078;-82
2022/02/15 06:30:08;;;;;;;10.80;6.40;;;;;;;12.07;41.03;100229.41;5072308;28;21120;-82
2022/02/15 06:32:47;;;;;;;8.48;5.82;;;;;;;12.44;39.74;100221.28;5056363;28;20142;-81
2022/02/15 06:35:15;;;;;;;11.18;6.55;;;;;;;12.78;38.46;100226.13;5049593;28;20041;-79
2022/02/15 06:37:46;;;;;;;11.48;6.53;;;;;;;13.39;37.71;100234.09;5066587;28;20070;-82
2022/02/15 06:40:14;;;;;;;10.18;6.18;;;;;;;13.43;36.29;100224.50;5064650;28;20075;-83
2022/02/15 06:42:46;;;;;;;9.52;6.07;;;;;;;13.18;35.21;100167.31;5053406;28;20055;-80
2022/02/15 06:45:15;;;;;;;8.98;6.28;;;;;;;13.82;35.19;100196.88;5047346;28;20044;-81
2022/02/15 06:47:43;;;;;;;8.68;5.75;;;;;;;14.00;34.64;100189.66;5051993;28;20064;-82
2022/02/15 06:50:09;;;;;;;9.85;6.50;;;;;;;14.42;33.43;100223.81;5035169;28;20487;-79
2022/02/15 06:52:41;;;;;;;10.68;6.57;;;;;;;14.02;32.80;100232.31;5061835;28;20138;-79
2022/02/15 06:55:16;;;;;;;10.02;6.53;;;;;;;13.65;33.32;100167.53;5053559;28;20044;-82
2022/02/15 06:57:44;;;;;;;10.35;6.28;;;;;;;14.26;33.27;100206.63;5045546;28;20044;-82
2022/02/15 07:00:13;;;;;;;9.60;6.60;;;;;;;14.70;32.54;100202.34;5034624;28;20040;-81
2022/02/15 07:02:40;;;;;;;9.45;6.18;;;;;;;15.79;30.28;100218.38;5052947;28;20128;-80
2022/02/15 07:05:10;;;;;;;10.63;7.18;;;;;;;16.35;30.05;100235.41;5067588;28;20052;-82
2022/02/15 07:07:38;;;;;;;10.38;5.88;;;;;;;16.11;29.75;100216.78;5043108;28;20134;-81
2022/02/15 07:10:08;;;;;;;10.75;7.05;;;;;;;16.34;29.26;100223.19;5064239;28;20059;-82
2022/02/15 07:12:48;;;;;;;9.00;6.38;;;;;;;16.96;28.31;100208.41;5055857;28;20727;-80
2022/02/15 07:15:20;;;;;;;9.13;6.22;;;;;;;17.59;28.42;100193.34;5069414;28;20098;-81
2022/02/15 07:17:59;;;;;;;10.07;6.57;;;;;;;18.26;27.32;100191.19;5051666;28;20050;-84
2022/02/15 07:20:38;;;;;;;9.75;6.35;;;;;;;17.94;25.64;100189.63;5063617;28;20040;-80
2022/02/15 07:23:43;;;;;;;10.13;6.40;;;;;;;17.40;27.04;100150.13;5060891;28;20480;-82
2022/02/15 07:26:28;;;;;;;9.48;7.05;;;;;;;18.39;26.67;100222.38;5060719;28;20336;-82
2022/02/15 07:29:13;;;;;;;11.43;6.97;;;;;;;18.76;26.09;100216.66;5067442;28;20116;-84
2022/02/15 07:32:08;;;;;;;8.55;6.32;;;;;;;19.29;25.27;100229.72;5064019;28;20139;-83
2022/02/15 07:34:34;;;;;;;8.93;6.38;;;;;;;18.23;25.04;100186.00;5034708;28;20106;-81
2022/02/15 07:37:00;;;;;;;9.65;6.63;;;;;;;18.41;25.39;100239.00;5063048;28;20538;-83
2022/02/15 07:39:27;;;;;;;9.25;6.78;;;;;;;18.59;24.86;100200.59;5063755;28;20064;-84
2022/02/15 07:41:54;;;;;;;9.77;6.45;;;;;;;17.47;24.90;100227.91;5064155;28;20052;-82
2022/02/15 07:44:27;;;;;;;9.57;7.10;;;;;;;16.51;25.62;100228.00;5065068;28;20139;-82
2022/02/15 07:46:52;;;;;;;9.52;6.68;;;;;;;16.67;26.03;100210.03;5070929;28;20079;-81
2022/02/15 07:49:18;;;;;;;10.10;6.95;;;;;;;17.14;25.69;100201.75;5074496;28;20040;-80
2022/02/15 07:51:44;;;;;;;10.18;6.88;;;;;;;17.62;25.36;100205.53;5077942;28;20064;-82
2022/02/15 07:54:10;;;;;;;8.65;6.45;;;;;;;18.88;24.88;100219.75;5054245;28;20041;-80
2022/02/15 07:56:36;;;;;;;10.85;7.07;;;;;;;20.36;23.82;100223.66;5075078;28;20040;-84
2022/02/15 07:59:05;;;;;;;8.32;6.68;;;;;;;21.48;23.14;100222.19;5067751;28;20136;-82
2022/02/15 08:01:31;;;;;;;9.10;6.50;;;;;;;21.61;22.56;100203.94;5067599;28;20524;-82
2022/02/15 08:03:58;;;;;;;9.43;6.70;;;;;;;21.84;22.18;100167.53;5056509;28;20105;-83
2022/02/15 08:06:29;;;;;;;10.02;7.03;;;;;;;22.54;21.82;100188.72;5071136;28;20048;-83
2022/02/15 08:08:56;;;;;;;10.07;7.63;;;;;;;22.50;20.55;100175.72;5059193;28;20050;-84
2022/02/15 08:11:24;;;;;;;8.73;6.45;;;;;;;22.05;21.33;100141.75;5070591;28;20055;-83
2022/02/15 08:13:54;;;;;;;;;;;;;;;22.72;20.86;100212.53;5064008;28;20119;-81
2022/02/15 08:16:21;;;;;;;10.43;6.75;;;;;;;22.34;21.15;100130.56;5066478;28;19912;-82
2022/02/15 08:18:47;;;;;;;11.90;6.93;;;;;;;22.40;21.03;100207.09;5074572;28;20045;-83
2022/02/15 08:21:13;;;;;;;10.50;6.75;;;;;;;20.41;21.19;100121.22;5066985;28;20072;-83
2022/02/15 08:23:38;;;;;;;8.13;7.10;;;;;;;19.79;21.22;100160.84;5071929;28;20067;-82
2022/02/15 08:26:05;;;;;;;9.75;6.90;;;;;;;18.16;21.92;100069.50;5039724;28;20051;-83
2022/02/15 08:28:33;;;;;;;12.88;6.60;;;;;;;17.98;22.11;100122.78;5036740;28;20048;-83
2022/02/15 08:30:59;;;;;;;7.57;6.05;;;;;;;17.92;22.57;100158.94;5054161;28;20086;-82
2022/02/15 08:33:27;;;;;;;11.77;7.03;;;;;;;18.49;22.73;100239.56;5068735;28;20044;-81
2022/02/15 08:35:54;;;;;;;11.15;6.85;;;;;;;18.42;22.33;100143.25;5057173;28;20086;-80
2022/02/15 08:38:20;;;;;;;11.75;6.63;;;;;;;18.15;22.14;100228.41;5067009;28;20041;-83
2022/02/15 08:40:45;;;;;;;11.27;7.03;;;;;;;18.22;22.72;100231.69;5068390;28;20051;-81
2022/02/15 08:43:11;;;;;;;9.88;6.53;;;;;;;18.36;22.61;100191.72;5055843;28;20114;-83
2022/02/15 08:45:38;;;;;;;9.95;6.72;;;;;;;18.86;22.42;100196.09;5059310;28;20047;-82
2022/02/15 08:48:04;;;;;;;10.73;7.10;;;;;;;19.12;21.89;100207.47;5039500;28;20044;-80
2022/02/15 08:50:32;;;;;;;10.60;7.22;;;;;;;19.42;22.28;100186.94;5073391;28;20128;-80
2022/02/15 08:52:58;;;;;;;9.23;6.55;;;;;;;19.98;21.66;100234.91;5067615;28;20037;-83
2022/02/15 08:55:24;;;;;;;10.18;6.97;;;;;;;20.55;21.50;100228.16;5071604;28;20040;-79
2022/02/15 08:57:51;;;;;;;11.60;8.00;;;;;;;21.07;21.04;100185.28;5070972;28;20058;-80
2022/02/15 09:00:17;;;;;;;11.80;7.10;;;;;;;21.92;20.77;100228.06;5071980;28;20057;-79
2022/02/15 09:02:43;;;;;;;10.50;7.53;;;;;;;22.99;20.39;100218.16;5073766;28;20453;-81
2022/02/15 09:05:09;;;;;;;10.02;7.10;;;;;;;22.54;19.30;100203.75;5072235;28;20139;-82
2022/02/15 09:07:35;;;;;;;7.85;6.38;;;;;;;21.67;19.92;100210.72;5069645;28;20036;-80
2022/02/15 09:10:03;;;;;;;11.07;7.40;;;;;;;22.10;20.33;100227.13;5071566;28;20060;-83
2022/02/15 09:12:28;;;;;;;10.18;7.60;;;;;;;22.63;19.86;100224.50;5070561;28;20044;-82
2022/02/15 09:14:56;;;;;;;9.50;7.20;;;;;;;22.27;19.22;100222.81;5078532;28;20055;-81
2022/02/15 09:17:22;;;;;;;11.80;7.40;;;;;;;21.78;19.75;100236.69;5063435;28;20074;-80
2022/02/15 09:19:49;;;;;;;9.80;7.00;;;;;;;19.88;19.89;100161.41;5083004;28;20037;-80
2022/02/15 09:22:17;;;;;;;9.77;6.97;;;;;;;18.92;20.85;100211.69;5081531;28;20032;-85
2022/02/15 09:24:46;;;;;;;12.57;7.38;;;;;;;18.57;21.25;100256.00;5062545;28;20090;-81
2022/02/15 09:27:12;;;;;;;9.95;7.50;;;;;;;18.64;21.21;100233.78;5079937;28;20272;-82
2022/02/15 09:29:38;;;;;;;14.25;7.65;;;;;;;18.88;21.41;100246.97;5069185;28;20037;-80
2022/02/15 09:32:05;;;;;;;9.93;6.78;;;;;;;19.12;21.07;100239.09;5089958;28;20204;-80
2022/02/15 09:34:31;;;;;;;9.57;7.47;;;;;;;20.12;20.96;100233.47;5091207;28;20076;-83
2022/02/15 09:36:57;;;;;;;10.48;7.13;;;;;;;20.44;20.03;100233.91;5071194;28;20029;-81
2022/02/15 09:39:25;;;;;;;10.95;6.90;;;;;;;20.22;20.99;100195.19;5073535;28;20059;-81
2022/02/15 09:41:51;;;;;;;10.93;7.03;;;;;;;20.21;20.03;100198.75;5086741;28;20051;-80
2022/02/15 09:44:17;;;;;;;10.25;7.20;;;;;;;20.29;20.03;100207.22;5090008;28;20128;-82
2022/02/15 09:46:44;;;;;;;10.43;7.13;;;;;;;20.76;20.22;100229.00;5083839;28;20048;-81
2022/02/15 09:49:48;;;;;;;10.02;6.72;;;;;;;20.86;20.54;100219.75;5081461;28;20049;-82
2022/02/15 09:51:57;;;;;;;11.88;7.10;;;;;;;20.88;19.64;100227.59;5070474;28;20674;-82
2022/02/15 09:54:23;;;;;;;10.27;7.13;;;;;;;20.59;20.13;100246.44;5071308;28;20060;-81
2022/02/15 09:56:52;;;;;;;11.10;7.13;;;;;;;20.46;21.08;100243.47;5081751;28;20070;-79
2022/02/15 09:59:19;;;;;;;10.38;6.90;;;;;;;20.11;20.16;100197.41;5092964;28;20037;-83
2022/02/15 10:01:47;;;;;;;11.27;7.70;;;;;;;19.94;20.54;100171.72;5089482;22;20053;-83
2022/02/15 10:04:31;;;;;;;10.38;7.28;;;;;;;20.38;20.11;100194.50;5056243;28;20036;-84
2022/02/15 10:06:59;;;;;;;10.77;7.03;;;;;;;19.89;20.53;100184.25;5054516;28;20127;-84
2022/02/15 10:09:27;;;;;;;9.35;6.75;;;;;;;20.39;21.12;100244.69;5052263;28;20048;-86
2022/02/15 10:11:52;;;;;;;7.28;6.20;;;;;;;20.26;19.89;100238.19;5054149;28;20045;-80
2022/02/15 10:14:22;;;;;;;10.30;7.15;;;;;;;20.70;20.93;100239.84;5056101;28;20041;-82
2022/02/15 10:16:50;;;;;;;9.80;7.45;;;;;;;21.12;20.12;100243.28;5070422;28;20692;-83
2022/02/15 10:19:25;;;;;;;7.82;6.30;;;;;;;21.66;19.48;100244.31;5056240;28;20456;-82
2022/02/15 10:21:54;;;;;;;10.45;7.63;;;;;;;21.52;19.64;100205.22;5056414;28;20051;-81
2022/02/15 10:24:22;;;;;;;12.07;7.28;;;;;;;21.52;19.44;100246.69;5039599;28;20045;-82
2022/02/15 10:27:12;;;;;;;10.68;7.18;;;;;;;19.52;19.71;100247.28;5071143;28;20106;-81
2022/02/15 10:29:43;;;;;;;10.20;7.60;;;;;;;17.16;21.26;100258.63;5054470;28;20043;-82
2022/02/15 10:32:14;;;;;;;10.13;7.23;;;;;;;15.54;22.24;100268.81;5054929;28;20143;-82
2022/02/15 10:34:48;;;;;;;10.70;7.18;;;;;;;14.19;23.23;100273.06;5053716;28;20117;-80
2022/02/15 10:37:15;;;;;;;11.32;7.65;;;;;;;13.07;24.28;100280.66;5059761;28;20205;-83
2022/02/15 10:39:52;;;;;;;11.18;7.07;;;;;;;11.89;25.34;100246.91;5053852;28;20412;-83
2022/02/15 10:42:24;;;;;;;10.57;7.30;;;;;;;11.29;26.23;100284.63;5070386;28;20043;-81
2022/02/15 10:44:53;;;;;;;10.75;6.85;;;;;;;10.47;27.08;100253.59;5051776;28;20056;-83
2022/02/15 10:47:23;;;;;;;11.95;7.63;;;;;;;10.32;27.55;100303.84;5052571;28;20033;-82
2022/02/15 10:49:49;;;;;;;11.00;7.13;;;;;;;9.88;28.61;100266.56;5034038;28;20045;-82
2022/02/15 10:52:15;;;;;;;11.45;6.55;;;;;;;9.80;28.66;100310.72;5054872;28;20032;-80
2022/02/15 10:54:42;;;;;;;13.68;6.75;;;;;;;9.37;29.50;100300.19;5054167;28;20047;-83
2022/02/15 10:57:13;;;;;;;10.38;6.47;;;;;;;8.90;30.03;100312.94;5051108;28;20065;-82
2022/02/15 10:59:41;;;;;;;12.65;7.03;;;;;;;8.40;30.48;100271.06;5016057;28;20420;-80
2022/02/15 11:02:16;;;;;;;9.23;6.30;;;;;;;7.97;31.36;100292.28;5039826;28;20083;-84
2022/02/15 11:04:45;;;;;;;12.27;6.45;;;;;;;7.00;31.89;100166.97;5022004;28;20064;-83
2022/02/15 11:07:14;;;;;;;10.50;6.13;;;;;;;7.44;32.37;100264.13;5055250;28;20049;-84
2022/02/15 11:09:49;;;;;;;17.20;6.45;;;;;;;7.43;32.70;100317.59;5049778;28;20051;-81
2022/02/15 11:12:23;;;;;;;9.90;6.53;;;;;;;7.27;33.16;100311.38;5056292;28;20058;-82
2022/02/15 11:14:58;;;;;;;9.80;6.22;;;;;;;7.15;33.25;100306.03;5048979;28;20059;-79
2022/02/15 11:17:27;;;;;;;10.70;6.53;;;;;;;6.97;33.73;100304.06;5032781;28;20040;-80
2022/02/15 11:20:06;;;;;;;10.07;6.38;;;;;;;6.61;34.42;100270.81;5049990;28;20057;-80
2022/02/15 11:22:52;;;;;;;13.80;7.43;;;;;;;6.65;34.65;100276.88;5050586;28;20045;-80
2022/02/15 11:25:38;;;;;;;10.15;6.60;;;;;;;6.69;34.74;100312.28;5055482;28;20512;-81
2022/02/15 11:28:11;;;;;;;12.07;6.63;;;;;;;6.55;34.94;100308.63;5041980;28;20368;-81
2022/02/15 11:30:51;;;;;;;10.23;6.10;;;;;;;6.55;35.80;100311.22;5037048;28;20036;-80